Sedov — UELO — position and weather

sailwx.info

Track history (hours):
 
Tides and Currents Weather Stations Pressure Air Temp Water Temp Dewpoint Dewpoint Depression Visibility Wind Speed Wind Dir Waves Ship Positions

Sedov (Russia)

Last reported at 2020-Jan-05 22:08 UTC. Time now 2020-Jan-24 04:18 UTC.
Position N 27°38' W 015°18'.
Warning: this ship's position is 18 days out of date.

Length 108 m; draft 5.9 m.

Type: Sailing vessel. MMSI: 273510000.

Date/timePositionNaut miles runAvg speedWind from/ knotsBaromVisibWave heightAir tempDewpointWater temp
2020-Jan-05 22:08N 27°38' W 015°18'110.3
2020-Jan-05 22:00N 27°39' W 015°18'29 8.4
2020-Jan-05 18:30N 28°07' W 015°25'1 0.4
2020-Jan-05 15:00N 28°09' W 015°26'0 0.0
2020-Jan-05 13:00N 28°09' W 015°26'0 0.0
2020-Jan-05 12:00N 28°09' W 015°26'0 0.0
2020-Jan-05 10:30N 28°09' W 015°26'0 0.0
2020-Jan-05 09:30N 28°09' W 015°26'0 0.0
2020-Jan-05 08:54N 28°09' W 015°26'0 0.0
2020-Jan-05 08:30N 28°09' W 015°26'0 0.0
2020-Jan-05 07:30N 28°09' W 015°26'0 0.0
2020-Jan-05 07:00N 28°09' W 015°26'0 0.0
2020-Jan-05 05:54N 28°09' W 015°26'0 0.0
2020-Jan-05 05:30N 28°09' W 015°26'0 0.0
2020-Jan-04 22:30N 28°09' W 015°26'0 0.0
2020-Jan-04 21:00N 28°09' W 015°26'0 0.0
2020-Jan-04 20:30N 28°09' W 015°26'0 0.0
2020-Jan-04 19:30N 28°09' W 015°26'0 0.0
2020-Jan-04 17:00N 28°09' W 015°26'0 0.0
2020-Jan-04 15:54N 28°09' W 015°26'0 0.0
2020-Jan-04 15:24N 28°09' W 015°26'0 0.0
2020-Jan-04 14:54N 28°09' W 015°26'0 0.0
2020-Jan-04 14:00N 28°09' W 015°26'0 0.0
2020-Jan-04 10:00N 28°09' W 015°26'0 0.0
2020-Jan-04 08:30N 28°09' W 015°26'0 0.0
2020-Jan-04 07:57N 28°09' W 015°26'0 0.0
2020-Jan-04 07:00N 28°09' W 015°26'0 0.0
2020-Jan-04 06:30N 28°09' W 015°26'0 0.0
2020-Jan-04 04:57N 28°09' W 015°26'0 0.0
2020-Jan-04 04:30N 28°09' W 015°26'0 0.0
2020-Jan-04 03:00N 28°09' W 015°26'1 0.2
2020-Jan-03 20:59N 28°09' W 015°24'1 0.6
2020-Jan-03 19:00N 28°08' W 015°25'1 0.2
2020-Jan-03 13:28N 28°09' W 015°26'0 0.0
2020-Jan-03 12:28N 28°09' W 015°26'0 0.0
2020-Jan-03 11:55N 28°09' W 015°26'0 0.0
2020-Jan-03 10:28N 28°09' W 015°26'0 0.0
2020-Jan-03 08:55N 28°09' W 015°26'0 0.0
2020-Jan-03 07:28N 28°09' W 015°26'0 0.0
2020-Jan-03 06:58N 28°09' W 015°26'0 0.0
2020-Jan-03 05:28N 28°09' W 015°26'0 0.0
2020-Jan-03 03:55N 28°09' W 015°26'0 0.0
2020-Jan-03 02:28N 28°09' W 015°26'0 0.0
2020-Jan-02 23:55N 28°09' W 015°26'0 0.0
2020-Jan-02 21:28N 28°09' W 015°26'0 0.0
2020-Jan-02 20:58N 28°09' W 015°26'0 0.0
2020-Jan-02 19:58N 28°09' W 015°26'0 0.0
2020-Jan-02 15:55N 28°09' W 015°26'0 0.0
2020-Jan-02 14:28N 28°09' W 015°26'0 0.0
2020-Jan-02 13:55N 28°09' W 015°26'0 0.0
2020-Jan-02 10:28N 28°09' W 015°26'0 0.0
2020-Jan-02 08:01N 28°09' W 015°26'0 0.0
2020-Jan-02 07:28N 28°09' W 015°26'0 0.0
2020-Jan-02 05:31N 28°09' W 015°26'0 0.0
2020-Jan-02 00:30N 28°09' W 015°26'0 0.0
2020-Jan-01 21:00N 28°09' W 015°26'0 0.0
2020-Jan-01 19:24N 28°09' W 015°26'0 0.0
2020-Jan-01 18:27N 28°09' W 015°26'0 0.0
2020-Jan-01 17:57N 28°09' W 015°26'0 0.0
2020-Jan-01 15:00N 28°09' W 015°26'0 0.0
2020-Jan-01 13:00N 28°09' W 015°26'0 0.0
2020-Jan-01 12:00N 28°09' W 015°26'0 0.0
2020-Jan-01 11:30N 28°09' W 015°26'0 0.0
2020-Jan-01 10:00N 28°09' W 015°26'0 0.0
2020-Jan-01 08:30N 28°09' W 015°26'0 0.0
2020-Jan-01 07:30N 28°09' W 015°26'0 0.0
2020-Jan-01 06:00N 28°09' W 015°26'0 0.0
2020-Jan-01 03:27N 28°09' W 015°26'0 0.0
2020-Jan-01 02:27N 28°09' W 015°26'0 0.0
2020-Jan-01 01:27N 28°09' W 015°26'0 0.0
2019-Dec-31 23:30N 28°09' W 015°26'0 0.0
2019-Dec-31 22:00N 28°09' W 015°26'0 0.0
2019-Dec-31 21:00N 28°09' W 015°26'0 0.0
2019-Dec-31 20:30N 28°09' W 015°26'0 0.0
2019-Dec-31 19:00N 28°09' W 015°26'0 0.0
2019-Dec-31 18:00N 28°09' W 015°26'0 0.7
2019-Dec-31 17:30N 28°08' W 015°25'4 2.1
2019-Dec-31 15:31N 28°07' W 015°21'4 3.6
2019-Dec-31 14:31N 28°09' W 015°18'3 5.7
2019-Dec-31 14:00N 28°12' W 015°16'10 6.8
2019-Dec-31 12:30N 28°22' W 015°14'1 1.1
2019-Dec-31 11:30N 28°23' W 015°14'4 1.2
2019-Dec-31 08:00N 28°27' W 015°13'1 2.0
2019-Dec-31 07:30N 28°28' W 015°12'2 3.8
2019-Dec-31 07:00N 28°30' W 015°12'2 3.7
2019-Dec-31 06:29N 28°31' W 015°11'3 6.2
2019-Dec-31 06:00N 28°32' W 015°08'1 2.6
2019-Dec-31 05:30N 28°31' W 015°06'1 2.4
2019-Dec-31 05:00N 28°31' W 015°05'1 2.3
2019-Dec-31 04:30N 28°30' W 015°04'3 1.9
2019-Dec-31 03:00N 28°29' W 015°01'3 1.7
2019-Dec-31 01:00N 28°29' W 014°57'4 1.3
2019-Dec-30 22:00N 28°29' W 014°52'7 3.5
2019-Dec-30 20:00N 28°31' W 014°45'4 1.8
2019-Dec-30 18:00N 28°34' W 014°47'3 1.4
2019-Dec-30 16:00N 28°37' W 014°48'4 1.1
2019-Dec-30 12:00N 28°41' W 014°49'2 1.3
2019-Dec-30 10:30N 28°43' W 014°48'10 3.0
2019-Dec-30 07:00N 28°52' W 014°43'9 5.9
2019-Dec-30 05:30N 29°01' W 014°39'3 6.1
2019-Dec-30 05:00N 29°03' W 014°38'13 8.7
2019-Dec-30 03:30N 29°16' W 014°33'14 9.6
2019-Dec-30 02:00N 29°29' W 014°27'27 9.0
2019-Dec-29 23:00N 29°55' W 014°17'32 9.2
2019-Dec-29 19:30N 30°25' W 014°04'9 9.0
2019-Dec-29 18:30N 30°33' W 014°01'96 9.1
2019-Dec-29 08:00N 32°04' W 013°24'5210.4
2019-Dec-29 03:00N 32°53' W 013°04'510.4
2019-Dec-29 02:30N 32°58' W 013°02'10610.4
2019-Dec-28 16:21N 34°38' W 012°20'510.6
2019-Dec-28 15:50N 34°43' W 012°19'3110.1
2019-Dec-28 12:50N 35°12' W 012°08'9410.6
2019-Dec-28 03:59N 36°40' W 011°27'2110.4
2019-Dec-28 02:00N 36°60' W 011°19'510.5
2019-Dec-28 01:30N 37°05' W 011°17'510.5
2019-Dec-28 01:00N 37°10' W 011°15'1510.3
2019-Dec-27 23:30N 37°24' W 011°09'3010.1
2019-Dec-27 20:30N 37°53' W 010°56'1010.4
2019-Dec-27 19:30N 38°03' W 010°51'510.3
2019-Dec-27 19:00N 38°08' W 010°49'2510.2
2019-Dec-27 16:30N 38°31' W 010°38'1010.2
2019-Dec-27 15:30N 38°41' W 010°34'1010.0
2019-Dec-27 14:30N 38°51' W 010°30'19 9.7
2019-Dec-27 12:30N 39°09' W 010°22'510.3
2019-Dec-27 12:00N 39°14' W 010°20'  
Track history (hours):
 
Tides and Currents Weather Stations Pressure Air Temp Water Temp Dewpoint Dewpoint Depression Visibility Wind Speed Wind Dir Waves Ship Positions

Sedov (Russia)

Last reported at 2020-Jan-05 22:08 UTC. Time now 2020-Jan-24 04:18 UTC.
Position N 27°38' W 015°18'.
Warning: this ship's position is 18 days out of date.

Length 108 m; draft 5.9 m.

Type: Sailing vessel. MMSI: 273510000.

Date/timePositionNaut miles runAvg speedWind from/ knotsBaromVisibWave heightAir tempDewpointWater temp
2020-Jan-05 22:08N 27°38' W 015°18'110.3
2020-Jan-05 22:00N 27°39' W 015°18'29 8.4
2020-Jan-05 18:30N 28°07' W 015°25'1 0.4
2020-Jan-05 15:00N 28°09' W 015°26'0 0.0
2020-Jan-05 13:00N 28°09' W 015°26'0 0.0
2020-Jan-05 12:00N 28°09' W 015°26'0 0.0
2020-Jan-05 10:30N 28°09' W 015°26'0 0.0
2020-Jan-05 09:30N 28°09' W 015°26'0 0.0
2020-Jan-05 08:54N 28°09' W 015°26'0 0.0
2020-Jan-05 08:30N 28°09' W 015°26'0 0.0
2020-Jan-05 07:30N 28°09' W 015°26'0 0.0
2020-Jan-05 07:00N 28°09' W 015°26'0 0.0
2020-Jan-05 05:54N 28°09' W 015°26'0 0.0
2020-Jan-05 05:30N 28°09' W 015°26'0 0.0
2020-Jan-04 22:30N 28°09' W 015°26'0 0.0
2020-Jan-04 21:00N 28°09' W 015°26'0 0.0
2020-Jan-04 20:30N 28°09' W 015°26'0 0.0
2020-Jan-04 19:30N 28°09' W 015°26'0 0.0
2020-Jan-04 17:00N 28°09' W 015°26'0 0.0
2020-Jan-04 15:54N 28°09' W 015°26'0 0.0
2020-Jan-04 15:24N 28°09' W 015°26'0 0.0
2020-Jan-04 14:54N 28°09' W 015°26'0 0.0
2020-Jan-04 14:00N 28°09' W 015°26'0 0.0
2020-Jan-04 10:00N 28°09' W 015°26'0 0.0
2020-Jan-04 08:30N 28°09' W 015°26'0 0.0
2020-Jan-04 07:57N 28°09' W 015°26'0 0.0
2020-Jan-04 07:00N 28°09' W 015°26'0 0.0
2020-Jan-04 06:30N 28°09' W 015°26'0 0.0
2020-Jan-04 04:57N 28°09' W 015°26'0 0.0
2020-Jan-04 04:30N 28°09' W 015°26'0 0.0
2020-Jan-04 03:00N 28°09' W 015°26'1 0.2
2020-Jan-03 20:59N 28°09' W 015°24'1 0.6
2020-Jan-03 19:00N 28°08' W 015°25'1 0.2
2020-Jan-03 13:28N 28°09' W 015°26'0 0.0
2020-Jan-03 12:28N 28°09' W 015°26'0 0.0
2020-Jan-03 11:55N 28°09' W 015°26'0 0.0
2020-Jan-03 10:28N 28°09' W 015°26'0 0.0
2020-Jan-03 08:55N 28°09' W 015°26'0 0.0
2020-Jan-03 07:28N 28°09' W 015°26'0 0.0
2020-Jan-03 06:58N 28°09' W 015°26'0 0.0
2020-Jan-03 05:28N 28°09' W 015°26'0 0.0
2020-Jan-03 03:55N 28°09' W 015°26'0 0.0
2020-Jan-03 02:28N 28°09' W 015°26'0 0.0
2020-Jan-02 23:55N 28°09' W 015°26'0 0.0
2020-Jan-02 21:28N 28°09' W 015°26'0 0.0
2020-Jan-02 20:58N 28°09' W 015°26'0 0.0
2020-Jan-02 19:58N 28°09' W 015°26'0 0.0
2020-Jan-02 15:55N 28°09' W 015°26'0 0.0
2020-Jan-02 14:28N 28°09' W 015°26'0 0.0
2020-Jan-02 13:55N 28°09' W 015°26'0 0.0
2020-Jan-02 10:28N 28°09' W 015°26'0 0.0
2020-Jan-02 08:01N 28°09' W 015°26'0 0.0
2020-Jan-02 07:28N 28°09' W 015°26'0 0.0
2020-Jan-02 05:31N 28°09' W 015°26'0 0.0
2020-Jan-02 00:30N 28°09' W 015°26'0 0.0
2020-Jan-01 21:00N 28°09' W 015°26'0 0.0
2020-Jan-01 19:24N 28°09' W 015°26'0 0.0
2020-Jan-01 18:27N 28°09' W 015°26'0 0.0
2020-Jan-01 17:57N 28°09' W 015°26'0 0.0
2020-Jan-01 15:00N 28°09' W 015°26'0 0.0
2020-Jan-01 13:00N 28°09' W 015°26'0 0.0
2020-Jan-01 12:00N 28°09' W 015°26'0 0.0
2020-Jan-01 11:30N 28°09' W 015°26'0 0.0
2020-Jan-01 10:00N 28°09' W 015°26'0 0.0
2020-Jan-01 08:30N 28°09' W 015°26'0 0.0
2020-Jan-01 07:30N 28°09' W 015°26'0 0.0
2020-Jan-01 06:00N 28°09' W 015°26'0 0.0
2020-Jan-01 03:27N 28°09' W 015°26'0 0.0
2020-Jan-01 02:27N 28°09' W 015°26'0 0.0
2020-Jan-01 01:27N 28°09' W 015°26'0 0.0
2019-Dec-31 23:30N 28°09' W 015°26'0 0.0
2019-Dec-31 22:00N 28°09' W 015°26'0 0.0
2019-Dec-31 21:00N 28°09' W 015°26'0 0.0
2019-Dec-31 20:30N 28°09' W 015°26'0 0.0
2019-Dec-31 19:00N 28°09' W 015°26'0 0.0
2019-Dec-31 18:00N 28°09' W 015°26'0 0.7
2019-Dec-31 17:30N 28°08' W 015°25'4 2.1
2019-Dec-31 15:31N 28°07' W 015°21'4 3.6
2019-Dec-31 14:31N 28°09' W 015°18'3 5.7
2019-Dec-31 14:00N 28°12' W 015°16'10 6.8
2019-Dec-31 12:30N 28°22' W 015°14'1 1.1
2019-Dec-31 11:30N 28°23' W 015°14'4 1.2
2019-Dec-31 08:00N 28°27' W 015°13'1 2.0
2019-Dec-31 07:30N 28°28' W 015°12'2 3.8
2019-Dec-31 07:00N 28°30' W 015°12'2 3.7
2019-Dec-31 06:29N 28°31' W 015°11'3 6.2
2019-Dec-31 06:00N 28°32' W 015°08'1 2.6
2019-Dec-31 05:30N 28°31' W 015°06'1 2.4
2019-Dec-31 05:00N 28°31' W 015°05'1 2.3
2019-Dec-31 04:30N 28°30' W 015°04'3 1.9
2019-Dec-31 03:00N 28°29' W 015°01'3 1.7
2019-Dec-31 01:00N 28°29' W 014°57'4 1.3
2019-Dec-30 22:00N 28°29' W 014°52'7 3.5
2019-Dec-30 20:00N 28°31' W 014°45'4 1.8
2019-Dec-30 18:00N 28°34' W 014°47'3 1.4
2019-Dec-30 16:00N 28°37' W 014°48'4 1.1
2019-Dec-30 12:00N 28°41' W 014°49'2 1.3
2019-Dec-30 10:30N 28°43' W 014°48'10 3.0
2019-Dec-30 07:00N 28°52' W 014°43'9 5.9
2019-Dec-30 05:30N 29°01' W 014°39'3 6.1
2019-Dec-30 05:00N 29°03' W 014°38'13 8.7
2019-Dec-30 03:30N 29°16' W 014°33'14 9.6
2019-Dec-30 02:00N 29°29' W 014°27'27 9.0
2019-Dec-29 23:00N 29°55' W 014°17'32 9.2
2019-Dec-29 19:30N 30°25' W 014°04'9 9.0
2019-Dec-29 18:30N 30°33' W 014°01'96 9.1
2019-Dec-29 08:00N 32°04' W 013°24'5210.4
2019-Dec-29 03:00N 32°53' W 013°04'510.4
2019-Dec-29 02:30N 32°58' W 013°02'10610.4
2019-Dec-28 16:21N 34°38' W 012°20'510.6
2019-Dec-28 15:50N 34°43' W 012°19'3110.1
2019-Dec-28 12:50N 35°12' W 012°08'9410.6
2019-Dec-28 03:59N 36°40' W 011°27'2110.4
2019-Dec-28 02:00N 36°60' W 011°19'510.5
2019-Dec-28 01:30N 37°05' W 011°17'510.5
2019-Dec-28 01:00N 37°10' W 011°15'1510.3
2019-Dec-27 23:30N 37°24' W 011°09'3010.1
2019-Dec-27 20:30N 37°53' W 010°56'1010.4
2019-Dec-27 19:30N 38°03' W 010°51'510.3
2019-Dec-27 19:00N 38°08' W 010°49'2510.2
2019-Dec-27 16:30N 38°31' W 010°38'1010.2
2019-Dec-27 15:30N 38°41' W 010°34'1010.0
2019-Dec-27 14:30N 38°51' W 010°30'19 9.7
2019-Dec-27 12:30N 39°09' W 010°22'510.3
2019-Dec-27 12:00N 39°14' W 010°20'  

Dump ship's entire track history